sensor_id;sensor_type;location;lat;lon;timestamp;P1;durP1;ratioP1;P2;durP2;ratioP2
53674;SDS011;39574;50.534;8.500;2023-03-21T00:03:04;7.7;;;3.3;;
53674;SDS011;39574;50.534;8.500;2023-03-21T00:08:04;7.4;;;3.3;;
53674;SDS011;39574;50.534;8.500;2023-03-21T00:13:02;7.9;;;3.2;;
53674;SDS011;39574;50.534;8.500;2023-03-21T00:18:02;7.6;;;3.2;;
53674;SDS011;39574;50.534;8.500;2023-03-21T00:23:03;8.7;;;3.2;;
53674;SDS011;39574;50.534;8.500;2023-03-21T00:27:59;7.9;;;3.2;;
53674;SDS011;39574;50.534;8.500;2023-03-21T00:32:58;7.6;;;3.0;;
53674;SDS011;39574;50.534;8.500;2023-03-21T00:37:57;8.2;;;3.0;;
53674;SDS011;39574;50.534;8.500;2023-03-21T00:42:57;7.6;;;3.0;;
53674;SDS011;39574;50.534;8.500;2023-03-21T00:47:56;7.8;;;3.0;;
53674;SDS011;39574;50.534;8.500;2023-03-21T00:52:55;8.0;;;3.0;;
53674;SDS011;39574;50.534;8.500;2023-03-21T00:57:53;7.1;;;3.0;;
53674;SDS011;39574;50.534;8.500;2023-03-21T01:02:52;6.1;;;2.7;;
53674;SDS011;39574;50.534;8.500;2023-03-21T01:07:51;6.5;;;2.8;;
53674;SDS011;39574;50.534;8.500;2023-03-21T01:12:50;6.8;;;2.7;;
53674;SDS011;39574;50.534;8.500;2023-03-21T01:17:49;6.6;;;2.5;;
53674;SDS011;39574;50.534;8.500;2023-03-21T01:22:48;7.5;;;2.5;;
53674;SDS011;39574;50.534;8.500;2023-03-21T01:27:47;7.6;;;2.5;;
53674;SDS011;39574;50.534;8.500;2023-03-21T01:32:46;6.9;;;2.4;;
53674;SDS011;39574;50.534;8.500;2023-03-21T01:37:45;6.6;;;2.4;;
53674;SDS011;39574;50.534;8.500;2023-03-21T01:42:45;6.5;;;2.5;;
53674;SDS011;39574;50.534;8.500;2023-03-21T01:47:43;6.8;;;2.7;;
53674;SDS011;39574;50.534;8.500;2023-03-21T01:52:42;7.0;;;2.7;;
53674;SDS011;39574;50.534;8.500;2023-03-21T01:57:42;7.5;;;2.5;;
53674;SDS011;39574;50.534;8.500;2023-03-21T02:02:41;7.7;;;2.5;;
53674;SDS011;39574;50.534;8.500;2023-03-21T02:07:39;7.7;;;2.3;;
53674;SDS011;39574;50.534;8.500;2023-03-21T02:12:38;7.4;;;2.3;;
53674;SDS011;39574;50.534;8.500;2023-03-21T02:17:38;7.2;;;2.3;;
53674;SDS011;39574;50.534;8.500;2023-03-21T02:22:40;7.0;;;2.4;;
53674;SDS011;39574;50.534;8.500;2023-03-21T02:27:36;6.9;;;2.5;;
53674;SDS011;39574;50.534;8.500;2023-03-21T02:32:38;7.4;;;2.7;;
53674;SDS011;39574;50.534;8.500;2023-03-21T02:37:33;7.5;;;2.8;;
53674;SDS011;39574;50.534;8.500;2023-03-21T02:42:33;7.2;;;2.7;;
53674;SDS011;39574;50.534;8.500;2023-03-21T02:47:32;6.3;;;2.4;;
53674;SDS011;39574;50.534;8.500;2023-03-21T02:52:30;5.8;;;2.2;;
53674;SDS011;39574;50.534;8.500;2023-03-21T02:57:29;6.4;;;2.3;;
53674;SDS011;39574;50.534;8.500;2023-03-21T03:02:28;6.6;;;2.3;;
53674;SDS011;39574;50.534;8.500;2023-03-21T03:07:30;6.2;;;2.3;;
53674;SDS011;39574;50.534;8.500;2023-03-21T03:12:28;6.4;;;2.3;;
53674;SDS011;39574;50.534;8.500;2023-03-21T03:17:28;6.0;;;2.2;;
53674;SDS011;39574;50.534;8.500;2023-03-21T03:22:25;5.8;;;2.2;;
53674;SDS011;39574;50.534;8.500;2023-03-21T03:27:23;6.0;;;2.3;;
53674;SDS011;39574;50.534;8.500;2023-03-21T03:32:23;6.0;;;2.4;;
53674;SDS011;39574;50.534;8.500;2023-03-21T03:37:21;7.1;;;2.5;;
53674;SDS011;39574;50.534;8.500;2023-03-21T03:42:20;8.3;;;3.3;;
53674;SDS011;39574;50.534;8.500;2023-03-21T03:47:20;9.2;;;3.4;;
53674;SDS011;39574;50.534;8.500;2023-03-21T03:52:18;8.7;;;3.4;;
53674;SDS011;39574;50.534;8.500;2023-03-21T03:57:17;9.7;;;4.1;;
53674;SDS011;39574;50.534;8.500;2023-03-21T04:02:16;8.4;;;3.6;;
53674;SDS011;39574;50.534;8.500;2023-03-21T04:07:15;7.6;;;3.2;;
53674;SDS011;39574;50.534;8.500;2023-03-21T04:12:14;6.0;;;2.8;;
53674;SDS011;39574;50.534;8.500;2023-03-21T04:17:13;5.8;;;2.4;;
53674;SDS011;39574;50.534;8.500;2023-03-21T04:22:12;6.4;;;2.3;;
53674;SDS011;39574;50.534;8.500;2023-03-21T04:27:11;7.8;;;2.6;;
53674;SDS011;39574;50.534;8.500;2023-03-21T04:32:10;7.8;;;2.8;;
53674;SDS011;39574;50.534;8.500;2023-03-21T04:37:08;7.7;;;2.8;;
53674;SDS011;39574;50.534;8.500;2023-03-21T04:42:07;6.8;;;2.6;;
53674;SDS011;39574;50.534;8.500;2023-03-21T04:47:06;6.4;;;2.8;;
53674;SDS011;39574;50.534;8.500;2023-03-21T04:52:05;6.5;;;3.0;;
53674;SDS011;39574;50.534;8.500;2023-03-21T04:57:04;10.0;;;6.0;;
53674;SDS011;39574;50.534;8.500;2023-03-21T05:02:03;9.8;;;5.8;;
53674;SDS011;39574;50.534;8.500;2023-03-21T05:07:02;9.1;;;4.9;;
53674;SDS011;39574;50.534;8.500;2023-03-21T05:12:01;8.9;;;3.9;;
53674;SDS011;39574;50.534;8.500;2023-03-21T05:17:00;8.2;;;2.9;;
53674;SDS011;39574;50.534;8.500;2023-03-21T05:22:00;9.5;;;2.6;;
53674;SDS011;39574;50.534;8.500;2023-03-21T05:26:58;8.3;;;2.6;;
53674;SDS011;39574;50.534;8.500;2023-03-21T05:31:57;7.5;;;2.5;;
53674;SDS011;39574;50.534;8.500;2023-03-21T05:36:56;6.4;;;2.4;;
53674;SDS011;39574;50.534;8.500;2023-03-21T05:41:58;6.0;;;2.3;;
53674;SDS011;39574;50.534;8.500;2023-03-21T05:46:54;7.2;;;2.5;;
53674;SDS011;39574;50.534;8.500;2023-03-21T05:51:53;7.0;;;2.6;;
53674;SDS011;39574;50.534;8.500;2023-03-21T05:56:53;8.2;;;3.1;;
53674;SDS011;39574;50.534;8.500;2023-03-21T06:01:51;8.5;;;3.5;;
53674;SDS011;39574;50.534;8.500;2023-03-21T06:06:50;7.8;;;3.6;;
53674;SDS011;39574;50.534;8.500;2023-03-21T06:11:49;6.8;;;3.2;;
53674;SDS011;39574;50.534;8.500;2023-03-21T06:16:48;6.8;;;3.2;;
53674;SDS011;39574;50.534;8.500;2023-03-21T06:21:47;7.8;;;3.2;;
53674;SDS011;39574;50.534;8.500;2023-03-21T06:26:46;7.8;;;3.1;;
53674;SDS011;39574;50.534;8.500;2023-03-21T06:31:44;7.6;;;3.1;;
53674;SDS011;39574;50.534;8.500;2023-03-21T06:36:44;8.2;;;3.2;;
53674;SDS011;39574;50.534;8.500;2023-03-21T06:41:42;8.6;;;3.3;;
53674;SDS011;39574;50.534;8.500;2023-03-21T06:46:41;8.5;;;3.4;;
53674;SDS011;39574;50.534;8.500;2023-03-21T06:51:41;8.7;;;3.6;;
53674;SDS011;39574;50.534;8.500;2023-03-21T06:56:41;9.4;;;3.8;;
53674;SDS011;39574;50.534;8.500;2023-03-21T07:01:38;9.4;;;3.8;;
53674;SDS011;39574;50.534;8.500;2023-03-21T07:06:38;9.8;;;3.9;;
53674;SDS011;39574;50.534;8.500;2023-03-21T07:11:36;9.9;;;4.3;;
53674;SDS011;39574;50.534;8.500;2023-03-21T07:16:37;10.0;;;4.4;;
53674;SDS011;39574;50.534;8.500;2023-03-21T07:21:35;11.1;;;4.7;;
53674;SDS011;39574;50.534;8.500;2023-03-21T07:26:34;10.0;;;4.7;;
53674;SDS011;39574;50.534;8.500;2023-03-21T07:31:33;9.6;;;4.8;;
53674;SDS011;39574;50.534;8.500;2023-03-21T07:36:32;10.1;;;5.0;;
53674;SDS011;39574;50.534;8.500;2023-03-21T07:41:32;10.4;;;5.1;;
53674;SDS011;39574;50.534;8.500;2023-03-21T07:46:30;10.8;;;5.2;;
53674;SDS011;39574;50.534;8.500;2023-03-21T07:51:29;10.9;;;5.1;;
53674;SDS011;39574;50.534;8.500;2023-03-21T07:56:28;11.3;;;5.3;;
53674;SDS011;39574;50.534;8.500;2023-03-21T08:01:27;13.1;;;5.5;;
53674;SDS011;39574;50.534;8.500;2023-03-21T08:06:26;12.5;;;5.1;;
53674;SDS011;39574;50.534;8.500;2023-03-21T08:11:25;12.3;;;5.2;;
53674;SDS011;39574;50.534;8.500;2023-03-21T08:16:24;12.1;;;5.4;;
53674;SDS011;39574;50.534;8.500;2023-03-21T08:21:23;12.6;;;5.5;;
53674;SDS011;39574;50.534;8.500;2023-03-21T08:26:22;12.6;;;5.3;;
53674;SDS011;39574;50.534;8.500;2023-03-21T08:31:21;10.8;;;5.0;;
53674;SDS011;39574;50.534;8.500;2023-03-21T08:36:21;9.7;;;4.7;;
53674;SDS011;39574;50.534;8.500;2023-03-21T08:41:19;9.8;;;4.5;;
53674;SDS011;39574;50.534;8.500;2023-03-21T08:46:18;9.5;;;4.4;;
53674;SDS011;39574;50.534;8.500;2023-03-21T08:51:20;9.7;;;4.4;;
53674;SDS011;39574;50.534;8.500;2023-03-21T08:56:16;10.8;;;4.4;;
53674;SDS011;39574;50.534;8.500;2023-03-21T09:01:15;11.0;;;4.5;;
53674;SDS011;39574;50.534;8.500;2023-03-21T09:06:15;10.5;;;4.5;;
53674;SDS011;39574;50.534;8.500;2023-03-21T09:11:14;11.1;;;4.6;;
53674;SDS011;39574;50.534;8.500;2023-03-21T09:16:15;10.7;;;4.5;;
53674;SDS011;39574;50.534;8.500;2023-03-21T09:21:12;10.4;;;4.5;;
53674;SDS011;39574;50.534;8.500;2023-03-21T09:26:11;9.6;;;4.4;;
53674;SDS011;39574;50.534;8.500;2023-03-21T09:31:10;10.8;;;4.5;;
53674;SDS011;39574;50.534;8.500;2023-03-21T09:36:09;10.9;;;4.3;;
53674;SDS011;39574;50.534;8.500;2023-03-21T09:41:10;11.7;;;4.3;;
53674;SDS011;39574;50.534;8.500;2023-03-21T09:46:08;11.9;;;4.5;;
53674;SDS011;39574;50.534;8.500;2023-03-21T09:51:07;11.7;;;4.7;;
53674;SDS011;39574;50.534;8.500;2023-03-21T09:56:06;11.0;;;4.6;;
53674;SDS011;39574;50.534;8.500;2023-03-21T10:01:07;11.6;;;4.9;;
53674;SDS011;39574;50.534;8.500;2023-03-21T10:06:04;12.0;;;5.1;;
53674;SDS011;39574;50.534;8.500;2023-03-21T10:11:03;12.6;;;5.3;;
53674;SDS011;39574;50.534;8.500;2023-03-21T10:16:05;12.8;;;5.5;;
53674;SDS011;39574;50.534;8.500;2023-03-21T10:21:01;13.5;;;5.9;;
53674;SDS011;39574;50.534;8.500;2023-03-21T10:26:00;12.9;;;6.0;;
53674;SDS011;39574;50.534;8.500;2023-03-21T10:30:59;13.9;;;6.1;;
53674;SDS011;39574;50.534;8.500;2023-03-21T10:35:58;13.8;;;6.4;;
53674;SDS011;39574;50.534;8.500;2023-03-21T10:40:57;13.9;;;6.5;;
53674;SDS011;39574;50.534;8.500;2023-03-21T10:45:56;15.5;;;6.6;;
53674;SDS011;39574;50.534;8.500;2023-03-21T10:50:55;16.5;;;6.8;;
53674;SDS011;39574;50.534;8.500;2023-03-21T10:55:55;16.6;;;6.8;;
53674;SDS011;39574;50.534;8.500;2023-03-21T11:00:53;15.5;;;6.7;;
53674;SDS011;39574;50.534;8.500;2023-03-21T11:05:52;15.0;;;6.8;;
53674;SDS011;39574;50.534;8.500;2023-03-21T11:10:52;15.6;;;7.1;;
53674;SDS011;39574;50.534;8.500;2023-03-21T11:15:52;16.1;;;7.5;;
53674;SDS011;39574;50.534;8.500;2023-03-21T11:20:51;16.2;;;7.5;;
53674;SDS011;39574;50.534;8.500;2023-03-21T11:25:48;17.2;;;7.3;;
53674;SDS011;39574;50.534;8.500;2023-03-21T11:30:49;16.7;;;7.6;;
53674;SDS011;39574;50.534;8.500;2023-03-21T11:35:56;16.2;;;7.3;;
53674;SDS011;39574;50.534;8.500;2023-03-21T11:40:51;15.7;;;7.2;;
53674;SDS011;39574;50.534;8.500;2023-03-21T11:45:54;15.2;;;7.0;;
53674;SDS011;39574;50.534;8.500;2023-03-21T11:50:44;14.5;;;6.6;;
53674;SDS011;39574;50.534;8.500;2023-03-21T11:55:45;15.3;;;6.7;;
53674;SDS011;39574;50.534;8.500;2023-03-21T12:00:43;14.2;;;6.5;;
53674;SDS011;39574;50.534;8.500;2023-03-21T12:05:41;13.8;;;6.1;;
53674;SDS011;39574;50.534;8.500;2023-03-21T12:10:41;14.0;;;6.3;;
53674;SDS011;39574;50.534;8.500;2023-03-21T12:15:42;14.9;;;6.4;;
53674;SDS011;39574;50.534;8.500;2023-03-21T12:20:39;15.1;;;6.5;;
53674;SDS011;39574;50.534;8.500;2023-03-21T12:25:38;15.1;;;7.1;;
53674;SDS011;39574;50.534;8.500;2023-03-21T12:30:39;14.2;;;6.8;;
53674;SDS011;39574;50.534;8.500;2023-03-21T12:35:42;14.0;;;6.5;;
53674;SDS011;39574;50.534;8.500;2023-03-21T12:40:37;13.2;;;6.3;;
53674;SDS011;39574;50.534;8.500;2023-03-21T12:45:33;14.9;;;6.5;;
53674;SDS011;39574;50.534;8.500;2023-03-21T12:50:32;13.9;;;6.2;;
53674;SDS011;39574;50.534;8.500;2023-03-21T12:55:32;12.5;;;5.8;;
53674;SDS011;39574;50.534;8.500;2023-03-21T13:00:32;13.7;;;5.9;;
53674;SDS011;39574;50.534;8.500;2023-03-21T13:05:30;11.9;;;5.2;;
53674;SDS011;39574;50.534;8.500;2023-03-21T13:10:28;11.0;;;4.8;;
53674;SDS011;39574;50.534;8.500;2023-03-21T13:15:31;10.4;;;4.1;;
53674;SDS011;39574;50.534;8.500;2023-03-21T13:20:28;9.1;;;3.9;;
53674;SDS011;39574;50.534;8.500;2023-03-21T13:25:25;8.9;;;3.6;;
53674;SDS011;39574;50.534;8.500;2023-03-21T13:30:25;9.3;;;3.3;;
53674;SDS011;39574;50.534;8.500;2023-03-21T13:35:24;8.3;;;3.2;;
53674;SDS011;39574;50.534;8.500;2023-03-21T13:45:22;8.5;;;3.3;;
53674;SDS011;39574;50.534;8.500;2023-03-21T13:50:22;7.9;;;3.4;;
53674;SDS011;39574;50.534;8.500;2023-03-21T13:55:19;7.3;;;3.3;;
53674;SDS011;39574;50.534;8.500;2023-03-21T14:00:20;7.9;;;3.3;;
53674;SDS011;39574;50.534;8.500;2023-03-21T14:05:19;7.8;;;3.3;;
53674;SDS011;39574;50.534;8.500;2023-03-21T14:10:17;7.5;;;3.3;;
53674;SDS011;39574;50.534;8.500;2023-03-21T14:15:17;6.4;;;3.1;;
53674;SDS011;39574;50.534;8.500;2023-03-21T14:20:15;6.7;;;3.3;;
53674;SDS011;39574;50.534;8.500;2023-03-21T14:25:14;6.0;;;3.1;;
53674;SDS011;39574;50.534;8.500;2023-03-21T14:30:18;6.2;;;3.2;;
53674;SDS011;39574;50.534;8.500;2023-03-21T14:35:12;6.0;;;3.1;;
53674;SDS011;39574;50.534;8.500;2023-03-21T14:40:17;7.8;;;3.8;;
53674;SDS011;39574;50.534;8.500;2023-03-21T14:45:10;9.0;;;4.8;;
53674;SDS011;39574;50.534;8.500;2023-03-21T14:50:09;9.3;;;4.9;;
53674;SDS011;39574;50.534;8.500;2023-03-21T14:55:10;9.2;;;4.9;;
53674;SDS011;39574;50.534;8.500;2023-03-21T15:00:07;9.0;;;4.6;;
53674;SDS011;39574;50.534;8.500;2023-03-21T15:05:07;8.5;;;4.2;;
53674;SDS011;39574;50.534;8.500;2023-03-21T15:10:05;8.2;;;4.1;;
53674;SDS011;39574;50.534;8.500;2023-03-21T15:15:04;8.3;;;4.0;;
53674;SDS011;39574;50.534;8.500;2023-03-21T15:20:03;8.9;;;4.1;;
53674;SDS011;39574;50.534;8.500;2023-03-21T15:25:02;10.1;;;4.7;;
53674;SDS011;39574;50.534;8.500;2023-03-21T15:30:01;9.2;;;4.3;;
53674;SDS011;39574;50.534;8.500;2023-03-21T15:35:03;8.8;;;4.2;;
53674;SDS011;39574;50.534;8.500;2023-03-21T15:40:05;7.6;;;4.1;;
53674;SDS011;39574;50.534;8.500;2023-03-21T15:45:00;7.3;;;4.2;;
53674;SDS011;39574;50.534;8.500;2023-03-21T15:49:57;7.9;;;4.7;;
53674;SDS011;39574;50.534;8.500;2023-03-21T15:54:56;8.3;;;4.8;;
53674;SDS011;39574;50.534;8.500;2023-03-21T15:59:55;8.7;;;4.9;;
53674;SDS011;39574;50.534;8.500;2023-03-21T16:04:55;8.2;;;4.8;;
53674;SDS011;39574;50.534;8.500;2023-03-21T16:09:57;8.3;;;4.9;;
53674;SDS011;39574;50.534;8.500;2023-03-21T16:14:52;9.2;;;5.5;;
53674;SDS011;39574;50.534;8.500;2023-03-21T16:19:51;9.7;;;5.7;;
53674;SDS011;39574;50.534;8.500;2023-03-21T16:24:51;9.7;;;5.8;;
53674;SDS011;39574;50.534;8.500;2023-03-21T16:34:49;9.3;;;5.5;;
53674;SDS011;39574;50.534;8.500;2023-03-21T16:39:48;8.7;;;5.4;;
53674;SDS011;39574;50.534;8.500;2023-03-21T16:44:47;8.0;;;5.0;;
53674;SDS011;39574;50.534;8.500;2023-03-21T16:49:46;7.2;;;4.4;;
53674;SDS011;39574;50.534;8.500;2023-03-21T16:54:45;7.0;;;4.1;;
53674;SDS011;39574;50.534;8.500;2023-03-21T16:59:44;7.6;;;3.9;;
53674;SDS011;39574;50.534;8.500;2023-03-21T17:04:43;7.0;;;3.7;;
53674;SDS011;39574;50.534;8.500;2023-03-21T17:09:42;6.9;;;3.8;;
53674;SDS011;39574;50.534;8.500;2023-03-21T17:14:42;8.1;;;4.7;;
53674;SDS011;39574;50.534;8.500;2023-03-21T17:19:40;9.8;;;6.0;;
53674;SDS011;39574;50.534;8.500;2023-03-21T17:24:40;11.4;;;6.8;;
53674;SDS011;39574;50.534;8.500;2023-03-21T17:29:39;12.3;;;7.2;;
53674;SDS011;39574;50.534;8.500;2023-03-21T17:34:38;11.8;;;7.2;;
53674;SDS011;39574;50.534;8.500;2023-03-21T17:39:37;11.9;;;6.9;;
53674;SDS011;39574;50.534;8.500;2023-03-21T17:44:36;12.2;;;7.0;;
53674;SDS011;39574;50.534;8.500;2023-03-21T17:49:35;11.2;;;6.5;;
53674;SDS011;39574;50.534;8.500;2023-03-21T17:54:34;10.9;;;6.2;;
53674;SDS011;39574;50.534;8.500;2023-03-21T17:59:33;11.3;;;6.6;;
53674;SDS011;39574;50.534;8.500;2023-03-21T18:04:33;11.5;;;6.8;;
53674;SDS011;39574;50.534;8.500;2023-03-21T18:09:31;11.9;;;7.0;;
53674;SDS011;39574;50.534;8.500;2023-03-21T18:14:30;12.6;;;7.3;;
53674;SDS011;39574;50.534;8.500;2023-03-21T18:19:29;13.5;;;8.5;;
53674;SDS011;39574;50.534;8.500;2023-03-21T18:24:29;13.7;;;9.2;;
53674;SDS011;39574;50.534;8.500;2023-03-21T18:29:27;14.2;;;9.6;;
53674;SDS011;39574;50.534;8.500;2023-03-21T18:34:27;14.5;;;9.5;;
53674;SDS011;39574;50.534;8.500;2023-03-21T18:39:26;15.9;;;10.7;;
53674;SDS011;39574;50.534;8.500;2023-03-21T18:44:27;16.9;;;11.1;;
53674;SDS011;39574;50.534;8.500;2023-03-21T18:49:24;16.2;;;10.7;;
53674;SDS011;39574;50.534;8.500;2023-03-21T18:54:23;15.7;;;10.8;;
53674;SDS011;39574;50.534;8.500;2023-03-21T19:04:21;15.9;;;10.9;;
53674;SDS011;39574;50.534;8.500;2023-03-21T19:09:22;21.4;;;14.8;;
53674;SDS011;39574;50.534;8.500;2023-03-21T19:14:19;25.8;;;17.6;;
53674;SDS011;39574;50.534;8.500;2023-03-21T19:19:18;26.7;;;17.5;;
53674;SDS011;39574;50.534;8.500;2023-03-21T19:24:17;28.0;;;17.6;;
53674;SDS011;39574;50.534;8.500;2023-03-21T19:29:16;25.8;;;15.8;;
53674;SDS011;39574;50.534;8.500;2023-03-21T19:34:15;26.3;;;15.5;;
53674;SDS011;39574;50.534;8.500;2023-03-21T19:39:14;25.9;;;15.3;;
53674;SDS011;39574;50.534;8.500;2023-03-21T19:44:13;25.4;;;14.8;;
53674;SDS011;39574;50.534;8.500;2023-03-21T19:49:12;26.5;;;15.7;;
53674;SDS011;39574;50.534;8.500;2023-03-21T19:54:11;28.1;;;16.0;;
53674;SDS011;39574;50.534;8.500;2023-03-21T19:59:10;26.6;;;15.5;;
53674;SDS011;39574;50.534;8.500;2023-03-21T20:04:09;23.0;;;13.7;;
53674;SDS011;39574;50.534;8.500;2023-03-21T20:09:08;19.6;;;11.8;;
53674;SDS011;39574;50.534;8.500;2023-03-21T20:14:07;16.3;;;10.0;;
53674;SDS011;39574;50.534;8.500;2023-03-21T20:19:06;14.9;;;9.4;;
53674;SDS011;39574;50.534;8.500;2023-03-21T20:24:05;15.1;;;10.0;;
53674;SDS011;39574;50.534;8.500;2023-03-21T20:29:04;16.4;;;10.9;;
53674;SDS011;39574;50.534;8.500;2023-03-21T20:44:03;19.6;;;12.8;;
53674;SDS011;39574;50.534;8.500;2023-03-21T20:49:00;23.2;;;14.6;;
53674;SDS011;39574;50.534;8.500;2023-03-21T20:53:59;24.3;;;14.6;;
53674;SDS011;39574;50.534;8.500;2023-03-21T21:03:56;21.4;;;13.3;;
53674;SDS011;39574;50.534;8.500;2023-03-21T21:08:55;19.8;;;12.2;;
53674;SDS011;39574;50.534;8.500;2023-03-21T21:13:54;17.2;;;10.7;;
53674;SDS011;39574;50.534;8.500;2023-03-21T21:18:53;17.1;;;10.4;;
53674;SDS011;39574;50.534;8.500;2023-03-21T21:23:52;18.3;;;10.9;;
53674;SDS011;39574;50.534;8.500;2023-03-21T21:28:51;18.3;;;10.8;;
53674;SDS011;39574;50.534;8.500;2023-03-21T21:33:52;18.4;;;11.0;;
53674;SDS011;39574;50.534;8.500;2023-03-21T21:38:49;18.9;;;11.2;;
53674;SDS011;39574;50.534;8.500;2023-03-21T21:43:48;18.1;;;10.8;;
53674;SDS011;39574;50.534;8.500;2023-03-21T21:48:47;16.8;;;10.5;;
53674;SDS011;39574;50.534;8.500;2023-03-21T21:53:46;18.1;;;11.2;;
53674;SDS011;39574;50.534;8.500;2023-03-21T21:58:45;19.3;;;12.0;;
53674;SDS011;39574;50.534;8.500;2023-03-21T22:03:44;20.0;;;12.4;;
53674;SDS011;39574;50.534;8.500;2023-03-21T22:08:43;19.3;;;12.1;;
53674;SDS011;39574;50.534;8.500;2023-03-21T22:13:42;17.6;;;11.2;;
53674;SDS011;39574;50.534;8.500;2023-03-21T22:18:41;18.0;;;11.2;;
53674;SDS011;39574;50.534;8.500;2023-03-21T22:23:40;20.8;;;12.3;;
53674;SDS011;39574;50.534;8.500;2023-03-21T22:28:39;20.7;;;11.9;;
53674;SDS011;39574;50.534;8.500;2023-03-21T22:33:39;19.5;;;11.5;;
53674;SDS011;39574;50.534;8.500;2023-03-21T22:38:37;22.3;;;14.0;;
53674;SDS011;39574;50.534;8.500;2023-03-21T22:43:36;19.9;;;12.6;;
53674;SDS011;39574;50.534;8.500;2023-03-21T22:48:35;19.0;;;12.0;;
53674;SDS011;39574;50.534;8.500;2023-03-21T22:53:34;17.6;;;11.0;;
53674;SDS011;39574;50.534;8.500;2023-03-21T22:58:33;15.4;;;9.9;;
53674;SDS011;39574;50.534;8.500;2023-03-21T23:03:32;16.8;;;10.4;;
53674;SDS011;39574;50.534;8.500;2023-03-21T23:08:30;17.5;;;10.6;;
53674;SDS011;39574;50.534;8.500;2023-03-21T23:13:30;16.9;;;10.3;;
53674;SDS011;39574;50.534;8.500;2023-03-21T23:18:28;17.9;;;10.5;;
53674;SDS011;39574;50.534;8.500;2023-03-21T23:23:28;18.4;;;10.8;;
53674;SDS011;39574;50.534;8.500;2023-03-21T23:28:26;22.6;;;12.7;;
53674;SDS011;39574;50.534;8.500;2023-03-21T23:33:25;22.3;;;12.4;;
53674;SDS011;39574;50.534;8.500;2023-03-21T23:38:24;21.3;;;11.6;;
53674;SDS011;39574;50.534;8.500;2023-03-21T23:43:23;19.5;;;11.0;;
53674;SDS011;39574;50.534;8.500;2023-03-21T23:48:22;17.5;;;9.9;;
53674;SDS011;39574;50.534;8.500;2023-03-21T23:53:21;16.4;;;9.3;;
53674;SDS011;39574;50.534;8.500;2023-03-21T23:58:20;15.7;;;9.1;;
